Time,TemperatureF,DewpointF,PressureIn,WindDirection,WindDirectionDegrees,WindSpeedMPH,WindSpeedGustMPH,Humidity,HourlyPrecipIn,Conditions,Clouds,dailyrainin,SoftwareType,DateUTC
2013-03-31 07:52:00,43.0,36.9,28.67,South,186,0.0,0.0,79,0.00,,CLR,0.00,VWS V14.01,2013-03-31 11:52:00,
2013-03-31 07:57:00,43.0,36.9,28.67,South,186,0.0,0.0,79,0.04,,CLR,0.04,VWS V14.01,2013-03-31 11:57:00,
2013-03-31 08:02:00,43.0,36.9,28.67,South,187,0.0,0.0,79,0.04,,-RA,0.04,VWS V14.01,2013-03-31 12:02:00,
2013-03-31 08:08:00,43.0,36.9,28.67,South,190,0.0,0.0,79,0.04,,-RA,0.04,VWS V14.01,2013-03-31 12:08:00,
2013-03-31 08:13:00,43.0,36.9,28.67,South,190,0.0,0.0,79,0.04,,-RA,0.04,VWS V14.01,2013-03-31 12:13:00,
2013-03-31 08:18:00,43.2,37.1,28.67,SSE,158,0.0,0.0,79,0.04,,-RA,0.04,VWS V14.01,2013-03-31 12:18:00,
2013-03-31 08:23:00,43.0,36.9,28.67,SSE,158,0.0,0.0,79,0.04,,-RA,0.04,VWS V14.01,2013-03-31 12:23:00,
2013-03-31 08:28:00,43.0,36.9,28.67,SSE,158,0.0,0.0,79,0.04,,-RA,0.04,VWS V14.01,2013-03-31 12:28:00,
2013-03-31 08:33:00,43.2,37.1,28.67,SSE,158,0.0,0.0,79,0.04,,-RA,0.04,VWS V14.01,2013-03-31 12:33:00,
2013-03-31 08:38:00,43.2,37.1,28.67,SSE,158,0.0,0.0,79,0.04,,-RA,0.04,VWS V14.01,2013-03-31 12:38:00,
2013-03-31 08:43:00,43.3,37.3,28.67,SSE,158,0.0,0.0,79,0.04,,-RA,0.04,VWS V14.01,2013-03-31 12:43:00,
2013-03-31 08:48:00,43.3,37.3,28.67,SSE,158,0.0,0.0,79,0.04,,-RA,0.04,VWS V14.01,2013-03-31 12:48:00,
2013-03-31 08:53:00,43.5,37.5,28.67,SSE,158,0.0,0.0,79,0.04,,-RA,0.04,VWS V14.01,2013-03-31 12:53:00,
2013-03-31 08:58:00,43.5,37.8,28.67,SSE,158,0.0,0.0,80,0.00,,-RA,0.04,VWS V14.01,2013-03-31 12:58:00,
2013-03-31 09:04:00,43.5,37.5,28.67,SSE,158,0.0,0.0,79,0.00,,RA,0.04,VWS V14.01,2013-03-31 13:04:00,
2013-03-31 09:09:00,43.5,37.8,28.67,SSE,158,0.0,0.0,80,0.04,,RA,0.08,VWS V14.01,2013-03-31 13:09:00,
2013-03-31 09:14:00,43.7,38.0,28.67,SSE,158,0.0,0.0,80,0.04,,RA,0.08,VWS V14.01,2013-03-31 13:14:00,
2013-03-31 09:19:00,43.7,38.3,28.67,SSE,158,0.0,0.0,81,0.04,,RA,0.00,VWS V14.01,2013-03-31 13:19:00,
2013-03-31 09:24:00,43.9,38.4,28.67,SSE,158,0.0,0.0,81,0.04,,RA,0.08,VWS V14.01,2013-03-31 13:24:00,
2013-03-31 09:29:00,43.7,38.3,28.67,SSE,158,0.0,0.0,81,0.04,,RA,0.08,VWS V14.01,2013-03-31 13:29:00,
2013-03-31 09:34:00,44.1,38.9,28.67,SSE,158,0.0,0.0,82,0.04,,RA,0.08,VWS V14.01,2013-03-31 13:34:00,
2013-03-31 09:39:00,44.1,38.9,28.67,SSE,158,0.0,0.0,82,0.04,,RA,0.08,VWS V14.01,2013-03-31 13:39:00,
2013-03-31 09:44:00,44.1,38.9,28.67,WSW,256,0.0,0.0,82,0.08,,RA,0.00,VWS V14.01,2013-03-31 13:44:00,
2013-03-31 09:49:00,44.2,39.1,28.67,West,267,0.0,0.0,82,0.08,,RA,0.12,VWS V14.01,2013-03-31 13:49:00,
2013-03-31 09:54:00,44.2,39.1,28.64,West,267,0.0,0.0,82,0.08,,RA,0.12,VWS V14.01,2013-03-31 13:54:00,
2013-03-31 09:59:00,44.2,39.1,28.64,West,267,0.0,0.0,82,0.08,,RA,0.12,VWS V14.01,2013-03-31 13:59:00,
2013-03-31 10:04:00,44.2,39.4,28.64,West,267,0.0,0.0,83,0.08,,-RA,0.12,VWS V14.01,2013-03-31 14:04:00,
2013-03-31 10:09:00,44.2,39.4,28.64,West,267,0.0,0.0,83,0.04,,-RA,0.12,VWS V14.01,2013-03-31 14:09:00,
2013-03-31 10:14:00,44.4,39.6,28.64,West,267,0.0,0.0,83,0.04,,-RA,0.12,VWS V14.01,2013-03-31 14:14:00,
2013-03-31 10:20:00,44.6,39.8,28.64,West,267,0.0,0.0,83,0.04,,-RA,0.12,VWS V14.01,2013-03-31 14:20:00,
2013-03-31 10:25:00,44.6,39.8,28.64,West,267,0.0,0.0,83,0.04,,-RA,0.12,VWS V14.01,2013-03-31 14:25:00,
2013-03-31 10:30:00,44.6,39.8,28.64,West,267,0.0,0.0,83,0.04,,-RA,0.12,VWS V14.01,2013-03-31 14:30:00,
2013-03-31 10:35:00,44.8,39.6,28.64,West,267,0.0,0.0,82,0.04,,-RA,0.12,VWS V14.01,2013-03-31 14:35:00,
2013-03-31 10:40:00,45.1,40.3,28.64,West,267,0.0,0.0,83,0.04,,-RA,0.12,VWS V14.01,2013-03-31 14:40:00,
2013-03-31 10:45:00,45.1,40.3,28.64,West,267,0.0,0.0,83,0.00,,-RA,0.12,VWS V14.01,2013-03-31 14:45:00,
2013-03-31 10:50:00,45.3,40.5,28.64,WSW,251,0.0,0.0,83,0.00,,-RA,0.12,VWS V14.01,2013-03-31 14:50:00,
2013-03-31 10:55:00,45.5,40.7,28.64,WSW,251,0.0,0.0,83,0.00,,-RA,0.12,VWS V14.01,2013-03-31 14:55:00,
2013-03-31 11:00:00,45.5,40.7,28.64,WSW,251,0.0,0.0,83,0.00,,-RA,0.12,VWS V14.01,2013-03-31 15:00:00,
2013-03-31 11:05:00,45.9,41.0,28.64,WSW,251,0.0,0.0,83,0.00,,-RA,0.12,VWS V14.01,2013-03-31 15:05:00,
2013-03-31 11:10:00,45.9,41.0,28.64,WSW,251,0.0,0.0,83,0.00,,-RA,0.12,VWS V14.01,2013-03-31 15:10:00,
2013-03-31 11:15:00,45.9,41.0,28.64,WSW,251,0.0,0.0,83,0.00,,-RA,0.12,VWS V14.01,2013-03-31 15:15:00,
2013-03-31 11:20:00,46.0,40.9,28.64,WSW,251,0.0,0.0,82,0.00,,-RA,0.12,VWS V14.01,2013-03-31 15:20:00,
2013-03-31 11:26:00,46.2,41.0,28.64,WSW,251,0.0,0.0,82,0.00,,-RA,0.12,VWS V14.01,2013-03-31 15:26:00,
2013-03-31 11:31:00,46.4,41.5,28.64,WSW,251,0.0,0.0,83,0.00,,-RA,0.12,VWS V14.01,2013-03-31 15:31:00,
2013-03-31 11:36:00,46.6,41.7,28.64,NW,326,0.0,0.0,83,0.00,,-RA,0.12,VWS V14.01,2013-03-31 15:36:00,
2013-03-31 11:42:00,46.4,41.5,28.64,NW,326,0.0,0.0,83,0.00,,-RA,0.12,VWS V14.01,2013-03-31 15:42:00,
2013-03-31 11:47:00,46.8,41.9,28.64,NW,326,0.0,0.0,83,0.00,,-RA,0.12,VWS V14.01,2013-03-31 15:47:00,
2013-03-31 11:52:00,46.8,41.9,28.61,NW,326,0.0,0.0,83,0.00,,-RA,0.12,VWS V14.01,2013-03-31 15:52:00,
2013-03-31 11:57:00,46.9,42.0,28.61,NW,326,0.0,0.0,83,0.00,,-RA,0.12,VWS V14.01,2013-03-31 15:57:00,
2013-03-31 12:02:00,46.8,41.9,28.61,NW,326,0.0,0.0,83,0.00,,-RA,0.12,VWS V14.01,2013-03-31 16:02:00,
2013-03-31 12:07:00,46.8,41.9,28.61,NW,326,0.0,0.0,83,0.00,,-RA,0.12,VWS V14.01,2013-03-31 16:07:00,
2013-03-31 12:12:00,46.9,42.0,28.61,NW,315,0.0,0.0,83,0.00,,-RA,0.12,VWS V14.01,2013-03-31 16:12:00,
2013-03-31 12:17:00,47.1,42.5,28.61,NW,315,0.0,0.0,84,0.00,,-RA,0.12,VWS V14.01,2013-03-31 16:17:00,
2013-03-31 12:22:00,47.3,42.7,28.61,NW,316,0.0,0.0,84,0.00,,-RA,0.12,VWS V14.01,2013-03-31 16:22:00,
2013-03-31 12:27:00,47.3,42.7,28.61,NW,315,0.0,0.0,84,0.00,,-RA,0.12,VWS V14.01,2013-03-31 16:27:00,
2013-03-31 12:32:00,47.5,42.9,28.61,NW,316,0.0,0.0,84,0.00,,,0.12,VWS V14.01,2013-03-31 16:32:00,
2013-03-31 12:37:00,47.7,43.1,28.61,NW,319,0.0,0.0,84,0.00,,,0.12,VWS V14.01,2013-03-31 16:37:00,
2013-03-31 12:43:00,48.2,43.6,28.61,WNW,289,0.0,0.0,84,0.00,,,0.12,VWS V14.01,2013-03-31 16:43:00,
2013-03-31 12:48:00,48.2,43.6,28.61,NW,316,0.0,0.0,84,0.00,,,0.12,VWS V14.01,2013-03-31 16:48:00,
2013-03-31 12:53:00,48.4,43.8,28.61,NE,45,3.1,3.1,84,0.00,,,0.12,VWS V14.01,2013-03-31 16:53:00,
2013-03-31 12:58:00,48.4,43.5,28.61,NNW,332,0.0,0.0,83,0.00,,,0.12,VWS V14.01,2013-03-31 16:58:00,
2013-03-31 13:03:00,48.7,43.8,28.61,NNW,329,0.0,0.0,83,0.00,,,0.12,VWS V14.01,2013-03-31 17:03:00,
2013-03-31 13:08:00,48.7,43.2,28.61,NE,43,0.0,0.0,81,0.00,,,0.12,VWS V14.01,2013-03-31 17:08:00,
2013-03-31 13:13:00,49.1,43.2,28.61,NNW,338,0.0,0.0,80,0.00,,,0.12,VWS V14.01,2013-03-31 17:13:00,
2013-03-31 13:18:00,49.6,43.7,28.61,WNW,287,0.0,0.0,80,0.00,,,0.12,VWS V14.01,2013-03-31 17:18:00,
2013-03-31 13:23:00,49.6,42.4,28.59,NW,305,0.0,0.0,76,0.00,,,0.12,VWS V14.01,2013-03-31 17:23:00,
2013-03-31 13:28:00,49.3,40.7,28.59,North,357,0.0,0.0,72,0.00,,,0.12,VWS V14.01,2013-03-31 17:28:00,
2013-03-31 13:33:00,50.2,42.2,28.59,North,353,0.0,0.0,74,0.00,,,0.12,VWS V14.01,2013-03-31 17:33:00,
2013-03-31 13:38:00,50.5,42.2,28.59,North,2,0.0,0.0,73,0.00,,,0.12,VWS V14.01,2013-03-31 17:38:00,
2013-03-31 13:43:00,50.9,42.2,28.59,SW,222,0.0,0.0,72,0.00,,,0.12,VWS V14.01,2013-03-31 17:43:00,
2013-03-31 13:48:00,51.4,42.0,28.59,NW,312,0.0,0.0,70,0.00,,,0.12,VWS V14.01,2013-03-31 17:48:00,
2013-03-31 13:53:00,51.6,40.7,28.59,NE,44,0.0,0.0,66,0.00,,,0.12,VWS V14.01,2013-03-31 17:53:00,
2013-03-31 13:58:00,52.0,40.2,28.59,SSE,156,0.0,0.0,64,0.00,,,0.12,VWS V14.01,2013-03-31 17:58:00,
2013-03-31 14:03:00,51.6,39.0,28.59,ENE,78,0.0,0.0,62,0.00,,,0.12,VWS V14.01,2013-03-31 18:03:00,
2013-03-31 14:08:00,51.8,39.6,28.59,ENE,78,0.0,0.0,63,0.00,,,0.12,VWS V14.01,2013-03-31 18:08:00,
2013-03-31 14:14:00,52.2,39.5,28.59,ENE,78,0.0,0.0,62,0.00,,,0.12,VWS V14.01,2013-03-31 18:14:00,
2013-03-31 14:19:00,52.5,39.9,28.59,NE,54,0.0,0.0,62,0.00,,,0.12,VWS V14.01,2013-03-31 18:19:00,
2013-03-31 14:24:00,53.1,39.6,28.56,ENE,69,0.0,0.0,60,0.00,,,0.12,VWS V14.01,2013-03-31 18:24:00,
2013-03-31 14:29:00,53.4,39.9,28.56,NNW,343,2.7,2.7,60,0.00,,,0.12,VWS V14.01,2013-03-31 18:29:00,
2013-03-31 14:34:00,53.8,39.8,28.56,WNW,291,0.0,2.7,59,0.00,,,0.12,VWS V14.01,2013-03-31 18:34:00,
2013-03-31 14:39:00,53.4,37.7,28.56,ENE,60,0.0,0.0,55,0.00,,,0.12,VWS V14.01,2013-03-31 18:39:00,
2013-03-31 14:44:00,53.2,37.5,28.56,ENE,73,0.0,0.0,55,0.00,,,0.12,VWS V14.01,2013-03-31 18:44:00,
2013-03-31 14:49:00,53.2,38.0,28.56,ENE,73,0.0,0.0,56,0.00,,,0.12,VWS V14.01,2013-03-31 18:49:00,
2013-03-31 14:54:00,53.2,38.4,28.59,ENE,73,0.0,0.0,57,0.00,,,0.12,VWS V14.01,2013-03-31 18:54:00,
2013-03-31 14:59:00,53.8,40.2,28.59,ENE,73,0.0,0.0,60,0.00,,,0.12,VWS V14.01,2013-03-31 18:59:00,
2013-03-31 15:04:00,53.8,38.5,28.59,NNW,345,0.0,0.0,56,0.00,,,0.12,VWS V14.01,2013-03-31 19:04:00,
2013-03-31 15:09:00,53.8,38.5,28.59,East,84,2.2,2.2,56,0.00,,,0.12,VWS V14.01,2013-03-31 19:09:00,
2013-03-31 15:14:00,53.8,38.5,28.59,ENE,76,0.0,0.0,56,0.00,,,0.12,VWS V14.01,2013-03-31 19:14:00,
2013-03-31 15:19:00,53.8,38.0,28.59,ENE,75,2.7,3.1,55,0.00,,,0.12,VWS V14.01,2013-03-31 19:19:00,
2013-03-31 15:24:00,53.8,38.0,28.59,ENE,75,0.0,0.0,55,0.00,,,0.12,VWS V14.01,2013-03-31 19:24:00,
2013-03-31 15:29:00,54.0,38.6,28.59,ENE,75,0.0,0.0,56,0.00,,,0.12,VWS V14.01,2013-03-31 19:29:00,
2013-03-31 15:34:00,54.3,39.0,28.59,NE,56,0.0,0.0,56,0.00,,,0.12,VWS V14.01,2013-03-31 19:34:00,
2013-03-31 15:39:00,54.5,38.2,28.59,ENE,64,2.2,2.2,54,0.00,,,0.12,VWS V14.01,2013-03-31 19:39:00,
2013-03-31 15:45:00,55.0,40.1,28.59,NNE,28,0.0,0.0,57,0.00,,,0.12,VWS V14.01,2013-03-31 19:45:00,
2013-03-31 15:50:00,55.4,38.1,28.59,ENE,61,3.1,3.1,52,0.00,,,0.12,VWS V14.01,2013-03-31 19:50:00,
2013-03-31 15:55:00,55.8,38.4,28.56,SW,226,0.0,0.0,52,0.00,,,0.12,VWS V14.01,2013-03-31 19:55:00,
2013-03-31 16:00:00,55.8,38.9,28.56,West,267,0.0,0.0,53,0.00,,,0.12,VWS V14.01,2013-03-31 20:00:00,
2013-03-31 16:05:00,55.9,38.1,28.56,East,99,2.2,2.7,51,0.00,,OVC080,0.12,VWS V14.01,2013-03-31 20:05:00,
2013-03-31 16:10:00,56.7,39.2,28.56,NE,54,0.0,0.0,52,0.00,,OVC080,0.12,VWS V14.01,2013-03-31 20:10:00,
2013-03-31 16:15:00,57.2,38.2,28.56,ENE,72,0.0,0.0,49,0.00,,OVC080,0.12,VWS V14.01,2013-03-31 20:15:00,
2013-03-31 16:20:00,57.4,38.4,28.56,ENE,65,2.7,3.1,49,0.00,,OVC080,0.12,VWS V14.01,2013-03-31 20:20:00,
2013-03-31 16:25:00,57.9,38.4,28.56,NE,43,0.0,0.0,48,0.00,,OVC080,0.12,VWS V14.01,2013-03-31 20:25:00,
2013-03-31 16:30:00,58.8,38.7,28.56,East,99,0.0,0.0,47,0.00,,OVC080,0.12,VWS V14.01,2013-03-31 20:30:00,
2013-03-31 16:35:00,59.4,38.0,28.56,East,85,2.2,2.2,45,0.00,,OVC080,0.12,VWS V14.01,2013-03-31 20:35:00,
2013-03-31 16:40:00,59.7,36.0,28.56,North,353,2.2,2.2,41,0.00,,OVC080,0.12,VWS V14.01,2013-03-31 20:40:00,
2013-03-31 16:45:00,60.3,35.9,28.56,North,353,2.2,2.2,40,0.00,,OVC080,0.12,VWS V14.01,2013-03-31 20:45:00,
2013-03-31 16:50:00,60.8,36.3,28.56,North,353,2.2,2.2,40,0.00,,OVC080,0.12,VWS V14.01,2013-03-31 20:50:00,
2013-03-31 16:55:00,61.3,35.5,28.56,NNW,335,4.0,5.8,38,0.00,,OVC080,0.12,VWS V14.01,2013-03-31 20:55:00,
2013-03-31 17:00:00,61.5,35.7,28.56,WSW,243,5.4,5.4,38,0.00,,OVC080,0.12,VWS V14.01,2013-03-31 21:00:00,
2013-03-31 17:05:00,61.5,34.3,28.56,West,271,0.0,0.0,36,0.00,,BKN080,0.12,VWS V14.01,2013-03-31 21:05:00,
2013-03-31 17:10:00,61.5,34.3,28.56,SW,224,5.8,5.8,36,0.00,,BKN080,0.12,VWS V14.01,2013-03-31 21:10:00,
2013-03-31 17:15:00,61.7,33.8,28.56,West,271,3.1,3.1,35,0.00,,BKN080,0.12,VWS V14.01,2013-03-31 21:15:00,
2013-03-31 17:20:00,61.7,33.8,28.56,WSW,249,5.8,5.8,35,0.00,,BKN080,0.12,VWS V14.01,2013-03-31 21:20:00,
2013-03-31 17:25:00,61.5,33.6,28.56,WSW,249,5.8,5.8,35,0.00,,BKN080,0.12,VWS V14.01,2013-03-31 21:25:00,
2013-03-31 17:30:00,61.3,33.5,28.56,West,274,5.4,8.1,35,0.00,,BKN080,0.12,VWS V14.01,2013-03-31 21:30:00,
2013-03-31 17:35:00,60.8,33.0,28.56,SW,233,3.1,3.1,35,0.00,,BKN080,0.12,VWS V14.01,2013-03-31 21:35:00,
2013-03-31 17:40:00,60.6,32.8,28.56,SW,223,6.3,7.6,35,0.00,,BKN080,0.12,VWS V14.01,2013-03-31 21:40:00,
2013-03-31 17:45:00,60.6,32.8,28.56,SSW,206,9.6,9.6,35,0.00,,BKN080,0.12,VWS V14.01,2013-03-31 21:45:00,
2013-03-31 17:50:00,60.8,33.0,28.56,West,270,4.0,4.0,35,0.00,,BKN080,0.12,VWS V14.01,2013-03-31 21:50:00,
2013-03-31 17:55:00,61.0,32.4,28.56,SW,230,6.3,6.3,34,0.00,,BKN080,0.12,VWS V14.01,2013-03-31 21:55:00,
2013-03-31 18:00:00,61.0,32.4,28.56,SSW,202,8.1,8.1,34,0.00,,BKN080,0.12,VWS V14.01,2013-03-31 22:00:00,
2013-03-31 18:05:00,61.0,32.4,28.56,WNW,295,11.0,11.0,34,0.00,,BKN070,0.12,VWS V14.01,2013-03-31 22:05:00,
2013-03-31 18:10:00,60.6,32.1,28.56,West,268,5.4,6.7,34,0.00,,BKN070,0.12,VWS V14.01,2013-03-31 22:10:00,
2013-03-31 18:15:00,60.6,32.1,28.56,SW,232,9.2,9.2,34,0.00,,BKN070,0.12,VWS V14.01,2013-03-31 22:15:00,
2013-03-31 18:21:00,60.4,32.0,28.56,West,267,7.6,7.6,34,0.00,,BKN070,0.12,VWS V14.01,2013-03-31 22:21:00,
2013-03-31 18:26:00,60.4,32.0,28.56,SW,233,3.6,3.6,34,0.00,,BKN070,0.12,VWS V14.01,2013-03-31 22:26:00,
2013-03-31 18:31:00,60.3,32.5,28.56,SW,236,4.0,4.0,35,0.00,,BKN070,0.12,VWS V14.01,2013-03-31 22:31:00,
2013-03-31 18:36:00,60.4,32.0,28.56,SSW,196,5.4,7.6,34,0.00,,BKN070,0.12,VWS V14.01,2013-03-31 22:36:00,
2013-03-31 18:42:00,60.3,31.8,28.53,West,269,4.0,4.0,34,0.00,,BKN070,0.12,VWS V14.01,2013-03-31 22:42:00,
2013-03-31 18:47:00,60.3,31.8,28.53,SW,220,5.4,5.4,34,0.00,,BKN070,0.12,VWS V14.01,2013-03-31 22:47:00,
2013-03-31 18:52:00,60.6,30.6,28.53,WSW,239,5.4,5.4,32,0.00,,BKN070,0.12,VWS V14.01,2013-03-31 22:52:00,
2013-03-31 18:57:00,60.6,29.8,28.53,SW,228,4.0,5.8,31,0.00,,BKN070,0.12,VWS V14.01,2013-03-31 22:57:00,
2013-03-31 19:02:00,60.6,29.8,28.53,WSW,252,6.3,6.3,31,0.00,,BKN110,0.12,VWS V14.01,2013-03-31 23:02:00,
2013-03-31 19:07:00,60.4,29.7,28.53,West,263,8.3,8.3,31,0.00,,BKN110,0.12,VWS V14.01,2013-03-31 23:07:00,
2013-03-31 19:12:00,60.4,29.7,28.53,WSW,242,3.1,6.3,31,0.00,,BKN110,0.12,VWS V14.01,2013-03-31 23:12:00,
2013-03-31 19:17:00,60.3,30.3,28.53,SW,217,6.3,6.3,32,0.00,,BKN110,0.12,VWS V14.01,2013-03-31 23:17:00,
2013-03-31 19:22:00,60.3,29.5,28.53,WNW,291,5.8,8.3,31,0.00,,BKN110,0.12,VWS V14.01,2013-03-31 23:22:00,
2013-03-31 19:27:00,60.1,30.1,28.53,West,268,5.8,5.8,32,0.00,,BKN110,0.12,VWS V14.01,2013-03-31 23:27:00,
2013-03-31 19:32:00,59.9,30.0,28.53,WSW,249,3.6,4.9,32,0.00,,BKN110,0.12,VWS V14.01,2013-03-31 23:32:00,
2013-03-31 19:37:00,59.9,30.0,28.53,West,272,4.0,5.4,32,0.00,,BKN110,0.12,VWS V14.01,2013-03-31 23:37:00,
2013-03-31 19:42:00,59.7,29.8,28.53,WNW,283,3.6,5.4,32,0.00,,BKN110,0.12,VWS V14.01,2013-03-31 23:42:00,
2013-03-31 19:48:00,59.4,30.3,28.53,West,272,0.0,2.7,33,0.00,,BKN110,0.12,VWS V14.01,2013-03-31 23:48:00,
2013-03-31 19:53:00,58.8,29.8,28.56,WSW,258,3.6,3.6,33,0.00,,BKN110,0.12,VWS V14.01,2013-03-31 23:53:00,
2013-03-31 19:58:00,58.5,30.2,28.56,SW,235,2.7,2.7,34,0.00,,BKN110,0.12,VWS V14.01,2013-03-31 23:58:00,
2013-03-31 20:03:00,58.5,30.2,28.56,SW,232,6.3,6.3,34,0.00,,FEW110,0.12,VWS V14.01,2013-04-01 00:03:00,
2013-03-31 20:08:00,58.5,30.2,28.56,West,261,0.0,2.7,34,0.00,,FEW110,0.12,VWS V14.01,2013-04-01 00:08:00,
2013-03-31 20:13:00,58.3,30.1,28.56,SW,225,4.0,4.5,34,0.00,,FEW110,0.12,VWS V14.01,2013-04-01 00:13:00,
2013-03-31 20:18:00,58.3,30.1,28.56,SW,220,2.7,3.6,34,0.00,,FEW110,0.12,VWS V14.01,2013-04-01 00:18:00,
2013-03-31 20:23:00,58.1,29.9,28.56,WSW,257,3.6,3.6,34,0.00,,FEW110,0.12,VWS V14.01,2013-04-01 00:23:00,
2013-03-31 20:28:00,58.1,30.6,28.56,West,259,3.1,3.1,35,0.00,,FEW110,0.12,VWS V14.01,2013-04-01 00:28:00,
2013-03-31 20:33:00,57.9,29.7,28.56,SW,229,4.5,4.5,34,0.00,,FEW110,0.12,VWS V14.01,2013-04-01 00:33:00,
2013-03-31 20:38:00,57.7,30.3,28.56,WSW,255,0.0,0.0,35,0.00,,FEW110,0.00,VWS V14.01,2013-04-01 00:38:00,
2013-03-31 20:43:00,57.6,30.1,28.56,WNW,289,0.0,0.0,35,0.00,,FEW110,0.12,VWS V14.01,2013-04-01 00:43:00,
2013-03-31 20:48:00,57.2,29.8,28.56,West,267,3.6,3.6,35,0.00,,FEW110,0.12,VWS V14.01,2013-04-01 00:48:00,
2013-03-31 20:53:00,56.8,29.5,28.56,West,275,0.0,2.7,35,0.00,,FEW110,0.12,VWS V14.01,2013-04-01 00:53:00,
2013-03-31 20:58:00,56.5,29.9,28.56,WSW,256,3.1,3.1,36,0.00,,FEW110,0.12,VWS V14.01,2013-04-01 00:58:00,
2013-03-31 21:04:00,56.3,29.7,28.56,NW,310,3.6,3.6,36,0.00,,SCT090,0.12,VWS V14.01,2013-04-01 01:04:00,
2013-03-31 21:09:00,56.7,30.0,28.56,West,266,0.0,2.7,36,0.00,,SCT090,0.12,VWS V14.01,2013-04-01 01:09:00,
2013-03-31 21:14:00,56.7,30.0,28.56,West,266,0.0,0.0,36,0.00,,SCT090,0.12,VWS V14.01,2013-04-01 01:14:00,
2013-03-31 21:19:00,56.3,29.7,28.56,NE,54,3.6,3.6,36,0.00,,SCT090,0.12,VWS V14.01,2013-04-01 01:19:00,
2013-03-31 21:24:00,56.1,29.5,28.56,WSW,249,0.0,0.0,36,0.00,,SCT090,0.12,VWS V14.01,2013-04-01 01:24:00,
2013-03-31 21:29:00,55.6,29.1,28.56,West,272,0.0,0.0,36,0.00,,SCT090,0.00,VWS V14.01,2013-04-01 01:29:00,
2013-03-31 21:34:00,55.4,28.9,28.56,South,182,3.1,3.1,36,0.00,,SCT090,0.12,VWS V14.01,2013-04-01 01:34:00,
2013-03-31 21:39:00,55.0,29.3,28.59,NNW,339,0.0,0.0,37,0.00,,SCT090,0.12,VWS V14.01,2013-04-01 01:39:00,
2013-03-31 21:44:00,54.7,29.6,28.59,NE,49,0.0,2.7,38,0.00,,SCT090,0.12,VWS V14.01,2013-04-01 01:44:00,
2013-03-31 21:49:00,55.2,29.4,28.59,WNW,295,0.0,0.0,37,0.00,,SCT090,0.12,VWS V14.01,2013-04-01 01:49:00,
2013-03-31 21:54:00,55.0,29.9,28.59,WNW,295,0.0,0.0,38,0.00,,SCT090,0.12,VWS V14.01,2013-04-01 01:54:00,
2013-03-31 21:59:00,54.5,29.4,28.59,SW,233,2.7,2.7,38,0.00,,SCT090,0.12,VWS V14.01,2013-04-01 01:59:00,
2013-03-31 22:04:00,54.1,29.8,28.59,West,267,0.0,0.0,39,0.00,,BKN095,0.12,VWS V14.01,2013-04-01 02:04:00,
2013-03-31 22:09:00,53.8,29.4,28.56,SW,234,0.0,0.0,39,0.00,,BKN095,0.12,VWS V14.01,2013-04-01 02:09:00,
2013-03-31 22:14:00,53.4,29.7,28.56,SW,234,0.0,0.0,40,0.00,,BKN095,0.12,VWS V14.01,2013-04-01 02:14:00,
2013-03-31 22:20:00,52.9,29.8,28.56,SW,234,0.0,0.0,41,0.00,,BKN095,0.12,VWS V14.01,2013-04-01 02:20:00,
2013-03-31 22:25:00,52.5,30.1,28.59,NW,325,0.0,0.0,42,0.00,,BKN095,0.12,VWS V14.01,2013-04-01 02:25:00,
2013-03-31 22:30:00,51.8,30.0,28.59,SW,229,0.0,0.0,43,0.00,,BKN095,0.12,VWS V14.01,2013-04-01 02:30:00,
2013-03-31 22:35:00,51.6,31.5,28.59,SW,229,0.0,0.0,46,0.00,,BKN095,0.12,VWS V14.01,2013-04-01 02:35:00,
2013-03-31 22:40:00,52.9,31.0,28.59,SW,229,0.0,0.0,43,0.00,,BKN095,0.12,VWS V14.01,2013-04-01 02:40:00,
2013-03-31 22:45:00,53.1,30.6,28.59,SW,235,3.1,3.6,42,0.00,,BKN095,0.12,VWS V14.01,2013-04-01 02:45:00,
2013-03-31 22:50:00,53.8,30.6,28.59,West,259,2.7,2.7,41,0.00,,BKN095,0.12,VWS V14.01,2013-04-01 02:50:00,
2013-03-31 22:55:00,54.1,30.4,28.59,West,260,3.6,3.6,40,0.00,,BKN095,0.12,VWS V14.01,2013-04-01 02:55:00,
2013-03-31 23:00:00,54.3,30.5,28.59,West,272,2.7,2.7,40,0.00,,BKN095,0.12,VWS V14.01,2013-04-01 03:00:00,
2013-03-31 23:05:00,54.5,30.7,28.59,West,274,3.1,3.1,40,0.00,,SCT100,0.12,VWS V14.01,2013-04-01 03:05:00,